createdAt,value
2019-03-08T00:01:03.318Z,77.10
2019-03-08T00:02:39.585Z,77.20
2019-03-08T00:04:15.677Z,77.30
2019-03-08T00:05:51.880Z,77.60
2019-03-08T00:07:28.038Z,77.60
2019-03-08T00:09:05.878Z,77.80
2019-03-08T00:10:41.997Z,77.90
2019-03-08T00:12:18.194Z,78.10
2019-03-08T00:13:54.116Z,78.30
2019-03-08T00:15:30.320Z,78.40
2019-03-08T00:17:06.451Z,78.50
2019-03-08T00:18:42.983Z,79.40
2019-03-08T00:20:19.189Z,78.70
2019-03-08T00:21:55.488Z,78.90
2019-03-08T00:23:31.719Z,79.10
2019-03-08T00:25:11.615Z,79.10
2019-03-08T00:26:47.741Z,79.50
2019-03-08T00:28:24.183Z,79.60
2019-03-08T00:30:00.412Z,79.80
2019-03-08T00:31:36.504Z,80.60
2019-03-08T00:33:12.698Z,80.00
2019-03-08T00:34:48.834Z,80.30
2019-03-08T00:36:25.636Z,80.40
2019-03-08T00:38:01.681Z,80.40
2019-03-08T00:39:37.708Z,80.50
2019-03-08T00:41:13.759Z,80.90
2019-03-08T00:42:49.885Z,80.90
2019-03-08T00:44:26.516Z,81.30
2019-03-08T00:46:02.542Z,81.50
2019-03-08T00:47:38.614Z,81.70
2019-03-08T00:49:14.810Z,82.80
2019-03-08T00:50:51.016Z,82.40
2019-03-08T00:52:27.321Z,82.60
2019-03-08T00:54:03.450Z,82.60
2019-03-08T00:55:41.112Z,82.90
2019-03-08T00:57:17.314Z,82.90
2019-03-08T00:58:53.510Z,83.20
2019-03-08T01:00:29.903Z,83.20
2019-03-08T01:02:06.222Z,83.20
2019-03-08T01:03:42.422Z,83.20
2019-03-08T01:05:19.433Z,83.60
2019-03-08T01:06:55.508Z,83.90
2019-03-08T01:08:31.567Z,84.00
2019-03-08T01:10:18.069Z,84.10
2019-03-08T01:11:54.445Z,84.20
2019-03-08T01:13:30.578Z,84.40
2019-03-08T01:15:14.315Z,84.30
2019-03-08T01:16:50.541Z,84.40
2019-03-08T01:18:26.752Z,84.60
2019-03-08T01:20:02.817Z,84.80
2019-03-08T01:21:38.943Z,84.70
2019-03-08T01:23:15.147Z,84.90
2019-03-08T01:24:51.254Z,85.10
2019-03-08T01:26:27.397Z,85.20
2019-03-08T01:28:06.879Z,85.20
2019-03-08T01:29:43.078Z,85.30
2019-03-08T01:31:19.563Z,85.50
2019-03-08T01:32:55.763Z,85.60
2019-03-08T01:34:31.752Z,85.80
2019-03-08T01:36:07.967Z,85.90
2019-03-08T01:37:43.993Z,86.20
2019-03-08T01:39:20.428Z,86.30
2019-03-08T01:40:56.622Z,86.80
2019-03-08T01:42:32.656Z,87.00
2019-03-08T01:44:09.466Z,87.30
2019-03-08T01:45:45.702Z,87.50
2019-03-08T01:47:21.751Z,87.60
2019-03-08T01:48:57.877Z,87.80
2019-03-08T01:50:33.931Z,88.00
2019-03-08T01:52:10.139Z,88.40
2019-03-08T01:53:46.407Z,88.80
2019-03-08T01:55:22.552Z,89.00
2019-03-08T01:56:58.654Z,89.30
2019-03-08T01:58:34.806Z,89.60
2019-03-08T02:00:20.941Z,89.70
2019-03-08T02:01:57.173Z,89.90
2019-03-08T02:03:33.383Z,90.00
2019-03-08T02:05:09.590Z,90.10
2019-03-08T02:06:45.827Z,90.10
2019-03-08T02:08:21.962Z,90.10
2019-03-08T02:09:58.089Z,90.30
2019-03-08T02:11:34.313Z,90.40
2019-03-08T02:13:10.514Z,90.50
2019-03-08T02:14:46.478Z,90.70
2019-03-08T02:16:22.547Z,90.70
2019-03-08T02:17:58.793Z,90.80
2019-03-08T02:19:34.918Z,90.80
2019-03-08T02:21:11.075Z,90.80
2019-03-08T02:22:47.425Z,90.90
2019-03-08T02:24:23.419Z,91.00
2019-03-08T02:25:59.530Z,91.00
2019-03-08T02:27:35.685Z,91.30
2019-03-08T02:29:11.743Z,91.40
2019-03-08T02:30:47.778Z,91.60
2019-03-08T02:32:23.911Z,91.60
2019-03-08T02:33:59.973Z,91.70
2019-03-08T02:35:36.040Z,91.70
2019-03-08T02:37:12.063Z,91.80
2019-03-08T02:38:48.128Z,91.90
2019-03-08T02:40:35.617Z,91.90
2019-03-08T02:42:11.928Z,92.00
2019-03-08T02:43:48.211Z,92.00
2019-03-08T02:45:24.512Z,92.00
2019-03-08T02:47:00.536Z,92.10
2019-03-08T02:48:36.659Z,92.30
2019-03-08T02:50:12.863Z,92.30
2019-03-08T02:51:48.976Z,92.30
2019-03-08T02:53:25.048Z,92.40
2019-03-08T02:55:02.327Z,92.40
2019-03-08T02:56:38.461Z,92.50
2019-03-08T02:58:14.704Z,92.60
2019-03-08T02:59:50.909Z,92.50
2019-03-08T03:01:26.970Z,92.90
2019-03-08T03:03:03.012Z,92.60
2019-03-08T03:04:39.038Z,92.60
2019-03-08T03:06:15.179Z,92.60
2019-03-08T03:07:51.314Z,92.70
2019-03-08T03:09:27.746Z,92.60
2019-03-08T03:11:03.877Z,92.60
2019-03-08T03:12:40.047Z,92.60
2019-03-08T03:14:16.108Z,92.60
2019-03-08T03:15:52.144Z,92.60
2019-03-08T03:17:28.576Z,92.50
2019-03-08T03:19:04.974Z,92.60
2019-03-08T03:20:41.039Z,92.50
2019-03-08T03:22:17.163Z,92.60
2019-03-08T03:23:53.362Z,92.50
2019-03-08T03:25:29.757Z,92.50
2019-03-08T03:27:06.074Z,92.50
2019-03-08T03:28:42.155Z,92.50
2019-03-08T03:30:22.481Z,92.40
2019-03-08T03:31:58.614Z,92.40
2019-03-08T03:33:34.507Z,92.40
2019-03-08T03:35:10.715Z,92.20
2019-03-08T03:36:46.770Z,92.20
2019-03-08T03:38:22.899Z,92.20
2019-03-08T03:39:58.988Z,92.20
2019-03-08T03:41:35.090Z,92.20
2019-03-08T03:43:11.249Z,92.10
2019-03-08T03:44:47.342Z,92.10
2019-03-08T03:46:23.502Z,92.10
2019-03-08T03:47:59.622Z,92.10
2019-03-08T03:49:35.760Z,92.00
2019-03-08T03:51:11.992Z,92.00
2019-03-08T03:52:48.284Z,92.00
2019-03-08T03:54:24.418Z,92.00
2019-03-08T03:56:00.576Z,91.90
2019-03-08T03:57:36.667Z,91.80
2019-03-08T03:59:12.862Z,91.80
2019-03-08T04:00:49.171Z,91.80
2019-03-08T04:02:25.379Z,91.70
2019-03-08T04:04:01.518Z,91.70
2019-03-08T04:05:37.646Z,91.60
2019-03-08T04:07:13.608Z,91.70
2019-03-08T04:08:49.747Z,91.60
2019-03-08T04:10:26.040Z,91.50
2019-03-08T04:12:03.470Z,91.40
2019-03-08T04:13:39.827Z,91.30
2019-03-08T04:15:21.269Z,91.30
2019-03-08T04:16:57.300Z,91.30
2019-03-08T04:18:33.546Z,91.10
2019-03-08T04:20:13.448Z,91.10
2019-03-08T04:21:49.666Z,91.00
2019-03-08T04:23:25.870Z,91.00
2019-03-08T04:25:02.173Z,90.90
2019-03-08T04:26:38.409Z,90.90
2019-03-08T04:28:14.550Z,90.90
2019-03-08T04:29:50.669Z,90.90
2019-03-08T04:31:26.760Z,90.90
2019-03-08T04:33:02.731Z,90.80
2019-03-08T04:34:40.075Z,90.80
2019-03-08T04:36:16.038Z,90.80
2019-03-08T04:37:52.216Z,90.80
2019-03-08T04:39:28.202Z,90.80
2019-03-08T04:41:04.309Z,90.80
2019-03-08T04:42:40.523Z,90.80
2019-03-08T04:44:16.758Z,90.70
2019-03-08T04:45:52.826Z,90.60
2019-03-08T04:47:28.955Z,90.60
2019-03-08T04:49:05.250Z,90.60
2019-03-08T04:50:41.386Z,90.60
2019-03-08T04:52:17.477Z,90.40
2019-03-08T04:53:53.785Z,90.50
2019-03-08T04:55:29.843Z,90.40
2019-03-08T04:57:06.036Z,90.40
2019-03-08T04:58:42.650Z,90.40
2019-03-08T05:00:20.150Z,90.40
2019-03-08T05:01:56.227Z,90.30
2019-03-08T05:03:32.457Z,90.30
2019-03-08T05:05:09.301Z,90.20
2019-03-08T05:06:45.357Z,90.20
2019-03-08T05:08:22.136Z,90.20
2019-03-08T05:09:58.372Z,90.20
2019-03-08T05:11:34.588Z,90.20
2019-03-08T05:13:10.789Z,90.20
2019-03-08T05:14:46.977Z,90.20
2019-03-08T05:16:23.415Z,90.10
2019-03-08T05:17:59.534Z,90.10
2019-03-08T05:19:35.846Z,90.00
2019-03-08T05:21:13.343Z,90.00
2019-03-08T05:22:49.509Z,89.80
2019-03-08T05:24:25.816Z,89.90
2019-03-08T05:26:02.057Z,89.70
2019-03-08T05:27:38.195Z,89.60
2019-03-08T05:29:14.329Z,89.40
2019-03-08T05:30:50.457Z,89.30
2019-03-08T05:32:26.578Z,89.10
2019-03-08T05:34:02.806Z,88.80
2019-03-08T05:35:38.941Z,88.90
2019-03-08T05:37:15.131Z,88.80
2019-03-08T05:38:51.201Z,88.80
2019-03-08T05:40:27.250Z,88.50
2019-03-08T05:42:03.272Z,88.40
2019-03-08T05:43:39.412Z,88.20
2019-03-08T05:45:16.334Z,88.00
2019-03-08T05:46:52.257Z,87.70
2019-03-08T05:48:28.384Z,87.80
2019-03-08T05:50:06.090Z,87.30
2019-03-08T05:51:42.147Z,86.90
2019-03-08T05:53:19.522Z,86.50
2019-03-08T05:54:55.655Z,86.30
2019-03-08T05:56:31.790Z,86.10
2019-03-08T05:58:07.851Z,86.10
2019-03-08T05:59:45.399Z,85.80
2019-03-08T06:01:21.574Z,85.50
2019-03-08T06:02:57.744Z,85.20
2019-03-08T06:04:33.769Z,85.90
2019-03-08T06:06:09.899Z,85.20
2019-03-08T06:07:45.955Z,85.00
2019-03-08T06:09:22.018Z,84.90
2019-03-08T06:10:58.077Z,84.80
2019-03-08T06:12:34.253Z,84.70
2019-03-08T06:14:10.389Z,85.50
2019-03-08T06:15:46.487Z,84.60
2019-03-08T06:17:22.671Z,84.60
2019-03-08T06:18:58.797Z,84.70
2019-03-08T06:20:34.821Z,84.60
2019-03-08T06:22:10.878Z,84.30
2019-03-08T06:23:46.955Z,84.40
2019-03-08T06:25:23.251Z,84.20
2019-03-08T06:26:59.498Z,83.90
2019-03-08T06:28:35.828Z,83.80
2019-03-08T06:30:13.926Z,83.70
2019-03-08T06:31:49.719Z,83.60
2019-03-08T06:33:25.714Z,83.60
2019-03-08T06:35:01.943Z,84.00
2019-03-08T06:36:38.077Z,83.50
2019-03-08T06:38:14.270Z,83.20
2019-03-08T06:39:50.334Z,83.10
2019-03-08T06:41:26.392Z,82.90
2019-03-08T06:43:02.620Z,82.80
2019-03-08T06:44:38.763Z,83.00
2019-03-08T06:46:14.813Z,83.60
2019-03-08T06:47:50.949Z,83.10
2019-03-08T06:49:26.965Z,83.00
2019-03-08T06:51:02.854Z,83.10
2019-03-08T06:52:39.167Z,82.90
2019-03-08T06:54:15.807Z,82.80
2019-03-08T06:55:51.861Z,82.70
2019-03-08T06:57:27.858Z,82.70
2019-03-08T06:59:05.588Z,82.50
2019-03-08T07:00:41.678Z,82.30
2019-03-08T07:02:18.781Z,81.70
2019-03-08T07:03:55.077Z,81.00
2019-03-08T07:05:31.221Z,79.80
2019-03-08T07:07:07.525Z,77.80
2019-03-08T07:08:43.839Z,77.00
2019-03-08T07:10:20.040Z,74.80
2019-03-08T07:11:56.220Z,73.80
2019-03-08T07:13:32.277Z,72.60
2019-03-08T07:15:08.508Z,72.00
2019-03-08T07:16:44.857Z,70.40
2019-03-08T07:18:21.071Z,68.80
2019-03-08T07:19:58.592Z,67.80
2019-03-08T07:21:38.989Z,67.60
2019-03-08T07:23:16.799Z,67.50
2019-03-08T07:25:10.517Z,66.80
2019-03-08T07:26:48.278Z,65.70
2019-03-08T07:28:32.797Z,64.90
2019-03-08T07:30:12.686Z,64.60
2019-03-08T07:31:56.472Z,65.50
2019-03-08T07:33:53.491Z,65.30
2019-03-08T07:35:29.604Z,64.40
2019-03-08T07:37:23.639Z,63.70
2019-03-08T07:39:01.252Z,63.80
2019-03-08T07:40:51.153Z,62.70
2019-03-08T07:42:29.471Z,61.50
2019-03-08T07:44:07.343Z,60.70
2019-03-08T07:45:47.851Z,59.70
2019-03-08T07:47:43.409Z,58.30
2019-03-08T07:49:33.054Z,57.10
2019-03-08T07:51:10.908Z,56.10
2019-03-08T07:52:52.742Z,56.50
2019-03-08T07:54:33.406Z,56.30
2019-03-08T07:56:20.221Z,55.90
2019-03-08T07:57:57.998Z,55.40
2019-03-08T07:59:53.339Z,55.40
2019-03-08T08:01:39.095Z,54.50
2019-03-08T08:03:20.539Z,55.60
2019-03-08T08:05:07.186Z,55.20
2019-03-08T08:06:46.447Z,54.90
2019-03-08T08:08:24.231Z,55.10
2019-03-08T08:10:10.972Z,54.80
2019-03-08T08:11:46.999Z,54.40
2019-03-08T08:13:33.836Z,54.40
2019-03-08T08:15:16.533Z,54.30
2019-03-08T08:17:07.729Z,54.00
2019-03-08T08:18:54.627Z,52.70
2019-03-08T08:20:38.897Z,52.50
2019-03-08T08:22:19.711Z,51.90
2019-03-08T08:23:57.672Z,50.00
2019-03-08T08:25:50.510Z,49.00
2019-03-08T08:27:28.178Z,48.60
2019-03-08T08:29:06.403Z,46.90
2019-03-08T08:30:55.748Z,47.00
2019-03-08T08:32:49.642Z,47.20
2019-03-08T08:34:39.465Z,47.70
2019-03-08T08:36:20.378Z,47.90
2019-03-08T08:38:06.304Z,48.30
2019-03-08T08:40:00.293Z,48.10
2019-03-08T08:41:43.809Z,48.50
2019-03-08T08:43:23.010Z,49.50
2019-03-08T08:45:17.045Z,50.40
2019-03-08T08:46:52.968Z,49.10
2019-03-08T08:48:45.731Z,48.40
2019-03-08T08:50:23.796Z,47.50
2019-03-08T08:52:17.896Z,48.40
2019-03-08T08:54:04.615Z,48.80
2019-03-08T08:55:45.260Z,49.70
2019-03-08T08:57:26.255Z,49.60
2019-03-08T08:59:07.890Z,48.50
2019-03-08T09:00:45.643Z,48.70
2019-03-08T09:02:23.491Z,48.90
2019-03-08T09:04:03.831Z,49.30
2019-03-08T09:05:47.894Z,49.10
2019-03-08T09:07:34.788Z,49.00
2019-03-08T09:09:15.665Z,48.30
2019-03-08T09:10:53.445Z,47.60
2019-03-08T09:12:39.758Z,47.30
2019-03-08T09:14:23.196Z,47.90
2019-03-08T09:16:02.428Z,48.00
2019-03-08T09:17:49.447Z,48.40
2019-03-08T09:19:43.321Z,48.40
2019-03-08T09:21:21.171Z,47.90
2019-03-08T09:22:58.980Z,47.70
2019-03-08T09:24:36.769Z,47.20
2019-03-08T09:26:26.524Z,46.60
2019-03-08T09:28:04.658Z,46.20
2019-03-08T09:29:48.063Z,45.80
2019-03-08T09:31:34.506Z,45.90
2019-03-08T09:33:18.251Z,44.50
2019-03-08T09:35:02.219Z,44.30
2019-03-08T09:36:55.849Z,44.10
2019-03-08T09:38:33.591Z,44.30
2019-03-08T09:40:12.468Z,43.40
2019-03-08T09:41:53.316Z,43.00
2019-03-08T09:43:31.096Z,42.40
2019-03-08T09:45:15.076Z,41.90
2019-03-08T09:46:52.968Z,42.30
2019-03-08T09:48:48.817Z,42.80
2019-03-08T09:50:29.261Z,43.10
2019-03-08T09:52:07.394Z,43.50
2019-03-08T09:53:45.185Z,43.10
2019-03-08T09:55:22.968Z,42.60
2019-03-08T09:57:11.037Z,41.20
2019-03-08T09:58:57.882Z,41.60
2019-03-08T10:00:38.018Z,41.30
2019-03-08T10:02:15.869Z,41.50
2019-03-08T10:04:09.792Z,42.20
2019-03-08T10:06:03.122Z,42.90
2019-03-08T10:07:43.544Z,43.20
2019-03-08T10:09:23.971Z,42.20
2019-03-08T10:10:59.921Z,42.40
2019-03-08T10:12:50.083Z,42.40
2019-03-08T10:14:34.987Z,43.10
2019-03-08T10:16:15.716Z,43.50
2019-03-08T10:17:59.141Z,43.90
2019-03-08T10:19:50.087Z,43.90
2019-03-08T10:21:30.872Z,43.30
2019-03-08T10:23:25.093Z,43.50
2019-03-08T10:25:03.950Z,43.00
2019-03-08T10:26:42.942Z,42.50
2019-03-08T10:28:32.614Z,41.70
2019-03-08T10:30:19.271Z,41.30
2019-03-08T10:31:57.078Z,41.00
2019-03-08T10:33:51.355Z,39.40
2019-03-08T10:35:41.252Z,39.70
2019-03-08T10:37:28.329Z,39.60
2019-03-08T10:39:13.257Z,40.80
2019-03-08T10:40:57.132Z,39.00
2019-03-08T10:42:53.222Z,38.50
2019-03-08T10:44:47.343Z,38.30
2019-03-08T10:46:26.050Z,37.70
2019-03-08T10:48:04.212Z,37.80
2019-03-08T10:49:42.097Z,37.60
2019-03-08T10:51:36.058Z,38.10
2019-03-08T10:53:28.949Z,38.30
2019-03-08T10:55:12.712Z,38.70
2019-03-08T10:56:59.879Z,39.60
2019-03-08T10:58:49.572Z,39.90
2019-03-08T11:00:27.412Z,40.30
2019-03-08T11:02:21.397Z,38.70
2019-03-08T11:03:59.262Z,38.80
2019-03-08T11:05:45.972Z,39.60
2019-03-08T11:07:26.362Z,39.90
2019-03-08T11:09:04.313Z,39.90
2019-03-08T11:11:06.098Z,40.10
2019-03-08T11:12:35.972Z,40.70
2019-03-08T11:14:14.535Z,40.30
2019-03-08T11:15:52.335Z,39.80
2019-03-08T11:17:40.216Z,39.60
2019-03-08T11:19:33.417Z,39.60
2019-03-08T11:21:16.933Z,39.70
2019-03-08T11:22:57.456Z,38.60
2019-03-08T11:24:35.340Z,38.90
2019-03-08T11:26:28.390Z,38.90
2019-03-08T11:28:21.241Z,38.40
2019-03-08T11:30:04.211Z,38.20
2019-03-08T11:31:47.791Z,38.00
2019-03-08T11:33:35.582Z,38.40
2019-03-08T11:35:22.898Z,39.00
2019-03-08T11:37:00.671Z,38.80
2019-03-08T11:38:38.422Z,36.90
2019-03-08T11:40:18.130Z,36.90
2019-03-08T11:41:56.030Z,37.10
2019-03-08T11:43:49.762Z,36.70
2019-03-08T11:45:27.486Z,37.40
2019-03-08T11:47:24.349Z,36.40
2019-03-08T11:49:14.910Z,35.90
2019-03-08T11:51:01.590Z,35.90
2019-03-08T11:52:46.415Z,36.90
2019-03-08T11:54:41.106Z,38.00
2019-03-08T11:56:23.156Z,38.90
2019-03-08T11:58:10.202Z,38.70
2019-03-08T11:59:48.094Z,37.60
2019-03-08T12:01:38.104Z,37.50
2019-03-08T12:03:25.389Z,37.10
2019-03-08T12:05:19.635Z,37.30
2019-03-08T12:07:06.729Z,37.70
2019-03-08T12:08:44.520Z,37.30
2019-03-08T12:10:22.230Z,36.90
2019-03-08T12:12:00.007Z,36.70
2019-03-08T12:13:49.883Z,36.50
2019-03-08T12:15:36.724Z,36.80
2019-03-08T12:17:22.922Z,37.50
2019-03-08T12:19:04.478Z,37.90
2019-03-08T12:20:45.075Z,38.60
2019-03-08T12:22:22.718Z,39.30
2019-03-08T12:24:04.565Z,39.80
2019-03-08T12:25:42.511Z,40.10
2019-03-08T12:27:22.890Z,40.60
2019-03-08T12:29:06.548Z,40.60
2019-03-08T12:30:44.411Z,40.80
2019-03-08T12:32:38.284Z,40.60
2019-03-08T12:34:19.487Z,39.90
2019-03-08T12:35:57.352Z,39.30
2019-03-08T12:37:46.831Z,38.10
2019-03-08T12:39:27.046Z,37.50
2019-03-08T12:41:04.756Z,37.00
2019-03-08T12:43:07.600Z,36.90
2019-03-08T12:44:52.959Z,36.10
2019-03-08T12:46:37.853Z,35.70
2019-03-08T12:48:23.576Z,35.10
2019-03-08T12:50:01.542Z,34.80
2019-03-08T12:51:45.488Z,35.00
2019-03-08T12:53:23.214Z,34.10
2019-03-08T12:55:08.032Z,34.60
2019-03-08T12:56:49.634Z,35.50
2019-03-08T12:58:43.024Z,35.90
2019-03-08T13:00:31.138Z,35.70
2019-03-08T13:02:18.037Z,35.00
2019-03-08T13:03:54.321Z,34.50
2019-03-08T13:05:38.024Z,34.40
2019-03-08T13:07:15.815Z,35.40
2019-03-08T13:09:08.366Z,36.40
2019-03-08T13:10:44.608Z,37.00
2019-03-08T13:12:22.827Z,37.40
2019-03-08T13:13:58.712Z,37.70
2019-03-08T13:15:34.912Z,37.70
2019-03-08T13:17:11.050Z,37.00
2019-03-08T13:18:47.367Z,36.50
2019-03-08T13:20:23.438Z,36.40
2019-03-08T13:21:59.582Z,36.40
2019-03-08T13:23:35.735Z,36.80
2019-03-08T13:25:12.534Z,37.10
2019-03-08T13:26:48.545Z,37.50
2019-03-08T13:28:24.635Z,37.70
2019-03-08T13:30:00.633Z,38.10
2019-03-08T13:31:36.776Z,38.50
2019-03-08T13:33:12.871Z,39.10
2019-03-08T13:34:48.950Z,39.50
2019-03-08T13:36:25.156Z,39.50
2019-03-08T13:38:01.396Z,39.50
2019-03-08T13:39:37.532Z,39.80
2019-03-08T13:41:13.675Z,39.20
2019-03-08T13:42:49.889Z,38.60
2019-03-08T13:44:26.031Z,38.40
2019-03-08T13:46:02.266Z,37.70
2019-03-08T13:47:38.405Z,37.30
2019-03-08T13:49:14.467Z,36.90
2019-03-08T13:50:50.476Z,36.60
2019-03-08T13:52:26.516Z,36.80
2019-03-08T13:54:02.752Z,36.00
2019-03-08T13:55:38.707Z,35.80
2019-03-08T13:57:14.668Z,34.40
2019-03-08T13:58:50.720Z,33.00
2019-03-08T14:00:26.688Z,32.20
2019-03-08T14:02:02.751Z,31.90
2019-03-08T14:03:38.647Z,32.10
2019-03-08T14:05:15.249Z,31.80
2019-03-08T14:06:51.403Z,31.60
2019-03-08T14:08:27.627Z,31.90
2019-03-08T14:10:04.976Z,31.90
2019-03-08T14:11:41.012Z,32.50
2019-03-08T14:13:17.090Z,32.80
2019-03-08T14:14:54.656Z,33.60
2019-03-08T14:16:31.045Z,34.20
2019-03-08T14:18:07.245Z,34.70
2019-03-08T14:19:43.398Z,35.00
2019-03-08T14:21:19.629Z,34.70
2019-03-08T14:22:55.878Z,34.70
2019-03-08T14:24:31.919Z,34.90
2019-03-08T14:26:08.313Z,34.90
2019-03-08T14:27:44.522Z,34.90
2019-03-08T14:29:22.425Z,35.00
2019-03-08T14:31:15.107Z,34.90
2019-03-08T14:32:51.315Z,34.90
2019-03-08T14:34:27.405Z,35.20
2019-03-08T14:36:06.154Z,35.30
2019-03-08T14:37:41.406Z,34.90
2019-03-08T14:39:17.611Z,33.90
2019-03-08T14:40:59.089Z,33.90
2019-03-08T14:42:43.107Z,33.70
2019-03-08T14:44:22.744Z,34.00
2019-03-08T14:46:09.553Z,34.10
2019-03-08T14:47:45.764Z,34.20
2019-03-08T14:49:22.835Z,34.80
2019-03-08T14:50:59.787Z,34.70
2019-03-08T14:52:35.949Z,34.60
2019-03-08T14:54:12.179Z,34.70
2019-03-08T14:55:48.470Z,35.50
2019-03-08T14:57:27.071Z,35.70
2019-03-08T14:59:02.305Z,35.90
2019-03-08T15:00:38.343Z,36.40
2019-03-08T15:02:14.737Z,36.40
2019-03-08T15:03:51.079Z,36.40
2019-03-08T15:05:27.205Z,36.80
2019-03-08T15:07:05.799Z,37.20
2019-03-08T15:08:42.055Z,37.50
2019-03-08T15:10:20.083Z,37.50
2019-03-08T15:11:59.525Z,37.70
2019-03-08T15:13:33.865Z,37.50
2019-03-08T15:15:13.046Z,37.60
2019-03-08T15:16:49.122Z,37.80
2019-03-08T15:18:25.965Z,37.90
2019-03-08T15:20:03.319Z,38.10
2019-03-08T15:21:48.415Z,38.10
2019-03-08T15:23:18.186Z,38.10
2019-03-08T15:24:54.920Z,38.40
2019-03-08T15:26:31.174Z,38.90
2019-03-08T15:28:07.246Z,39.10
2019-03-08T15:29:43.219Z,39.30
2019-03-08T15:31:19.426Z,39.50
2019-03-08T15:32:55.618Z,40.00
2019-03-08T15:34:32.019Z,41.00
2019-03-08T15:36:08.123Z,41.80
2019-03-08T15:37:44.842Z,43.00
2019-03-08T15:39:21.166Z,44.20
2019-03-08T15:40:57.437Z,45.40
2019-03-08T15:42:36.354Z,46.50
2019-03-08T15:44:11.657Z,47.30
2019-03-08T15:45:47.900Z,47.90
2019-03-08T15:47:24.140Z,48.50
2019-03-08T15:49:00.194Z,48.90
2019-03-08T15:50:36.332Z,49.60
2019-03-08T15:52:12.475Z,50.40
2019-03-08T15:53:48.544Z,50.70
2019-03-08T15:55:24.768Z,51.00
2019-03-08T15:57:00.909Z,51.30
2019-03-08T15:58:37.038Z,52.20
2019-03-08T16:00:19.939Z,52.60
2019-03-08T16:01:56.242Z,52.90
2019-03-08T16:03:33.963Z,53.00
2019-03-08T16:05:13.210Z,53.40
2019-03-08T16:06:49.515Z,54.00
2019-03-08T16:08:26.031Z,54.50
2019-03-08T16:10:02.207Z,54.80
2019-03-08T16:11:38.354Z,55.10
2019-03-08T16:13:14.427Z,55.50
2019-03-08T16:14:50.650Z,55.80
2019-03-08T16:16:26.870Z,56.10
2019-03-08T16:18:02.936Z,56.20
2019-03-08T16:19:38.951Z,56.60
2019-03-08T16:21:15.221Z,57.00
2019-03-08T16:22:51.557Z,57.50
2019-03-08T16:24:31.092Z,57.70
2019-03-08T16:26:05.548Z,57.70
2019-03-08T16:27:41.968Z,57.90
2019-03-08T16:29:17.957Z,58.20
2019-03-08T16:30:55.793Z,58.40
2019-03-08T16:32:36.241Z,58.60
2019-03-08T16:34:13.616Z,58.70
2019-03-08T16:36:10.661Z,58.60
2019-03-08T16:37:48.022Z,58.90
2019-03-08T16:39:31.157Z,59.10
2019-03-08T16:41:24.460Z,59.10
2019-03-08T16:43:16.876Z,59.40
2019-03-08T16:45:05.919Z,59.40
2019-03-08T16:46:56.001Z,59.70
2019-03-08T16:48:33.273Z,59.90
2019-03-08T16:50:10.724Z,59.90
2019-03-08T16:51:49.022Z,60.00
2019-03-08T16:53:44.784Z,60.40
2019-03-08T16:55:36.857Z,60.10
2019-03-08T16:57:17.336Z,60.30
2019-03-08T16:59:11.123Z,60.70
2019-03-08T17:00:47.046Z,60.60
2019-03-08T17:02:25.638Z,60.60
2019-03-08T17:04:15.747Z,60.50
2019-03-08T17:05:59.809Z,60.20
2019-03-08T17:07:46.444Z,60.10
2019-03-08T17:09:42.895Z,60.70
2019-03-08T17:11:27.090Z,60.10
2019-03-08T17:13:08.376Z,59.90
2019-03-08T17:15:02.614Z,59.80
2019-03-08T17:16:42.953Z,60.10
2019-03-08T17:18:30.901Z,60.20
2019-03-08T17:20:24.424Z,60.40
2019-03-08T17:22:18.125Z,60.50
2019-03-08T17:23:58.600Z,60.50
2019-03-08T17:25:36.468Z,61.20
2019-03-08T17:27:14.249Z,60.70
2019-03-08T17:28:50.451Z,60.90
2019-03-08T17:30:26.520Z,60.90
2019-03-08T17:32:04.971Z,60.70
2019-03-08T17:33:42.634Z,60.90
2019-03-08T17:35:27.426Z,61.10
2019-03-08T17:37:05.259Z,61.20
2019-03-08T17:38:51.933Z,61.40
2019-03-08T17:40:35.925Z,61.70
2019-03-08T17:42:13.728Z,61.90
2019-03-08T17:44:03.613Z,61.80
2019-03-08T17:45:47.249Z,61.70
2019-03-08T17:47:27.943Z,61.90
2019-03-08T17:49:11.707Z,61.80
2019-03-08T17:50:58.536Z,62.00
2019-03-08T17:52:45.179Z,62.00
2019-03-08T17:54:25.763Z,61.70
2019-03-08T17:56:01.992Z,61.50
2019-03-08T17:57:39.658Z,61.40
2019-03-08T17:59:20.455Z,61.10
2019-03-08T18:00:58.266Z,61.10
2019-03-08T18:02:38.750Z,61.10
2019-03-08T18:04:19.492Z,60.40
2019-03-08T18:06:15.598Z,60.40
2019-03-08T18:08:09.362Z,60.20
2019-03-08T18:09:52.827Z,60.20
2019-03-08T18:11:36.442Z,60.20
2019-03-08T18:13:30.666Z,60.00
2019-03-08T18:15:10.837Z,59.80
2019-03-08T18:16:57.708Z,59.20
2019-03-08T18:18:38.113Z,58.90
2019-03-08T18:20:26.096Z,58.80
2019-03-08T18:22:03.907Z,58.80
2019-03-08T18:23:41.547Z,58.50
2019-03-08T18:25:31.311Z,58.10
2019-03-08T18:27:11.654Z,57.90
2019-03-08T18:28:55.040Z,57.80
2019-03-08T18:30:51.220Z,57.70
2019-03-08T18:32:44.933Z,57.50
2019-03-08T18:34:22.695Z,57.00
2019-03-08T18:36:03.426Z,56.60
2019-03-08T18:37:45.131Z,56.50
2019-03-08T18:39:20.866Z,56.10
2019-03-08T18:41:16.653Z,56.00
2019-03-08T18:42:57.185Z,56.10
2019-03-08T18:44:43.887Z,55.50
2019-03-08T18:46:37.864Z,55.70
2019-03-08T18:48:21.478Z,55.60
2019-03-08T18:49:59.174Z,55.60
2019-03-08T18:51:43.974Z,55.50
2019-03-08T18:53:33.647Z,55.60
2019-03-08T18:55:21.994Z,55.50
2019-03-08T18:56:59.690Z,55.60
2019-03-08T18:58:55.557Z,55.80
2019-03-08T19:00:33.578Z,56.00
2019-03-08T19:02:27.621Z,56.00
2019-03-08T19:04:11.515Z,56.10
2019-03-08T19:05:49.288Z,56.20
2019-03-08T19:07:43.110Z,56.30
2019-03-08T19:09:22.097Z,56.40
2019-03-08T19:11:08.353Z,56.40
2019-03-08T19:12:55.617Z,56.50
2019-03-08T19:14:49.593Z,56.60
2019-03-08T19:16:42.340Z,56.60
2019-03-08T19:18:25.957Z,56.70
2019-03-08T19:20:07.810Z,56.70
2019-03-08T19:21:48.616Z,57.00
2019-03-08T19:23:26.450Z,56.90
2019-03-08T19:25:04.244Z,57.00
2019-03-08T19:26:42.302Z,57.30
2019-03-08T19:28:20.067Z,57.30
2019-03-08T19:30:04.951Z,57.40
2019-03-08T19:31:59.050Z,57.50
2019-03-08T19:33:37.627Z,58.00
2019-03-08T19:35:18.670Z,58.60
2019-03-08T19:37:11.525Z,59.00
2019-03-08T19:38:55.148Z,59.30
2019-03-08T19:40:48.535Z,59.50
2019-03-08T19:42:31.953Z,59.70
2019-03-08T19:44:15.673Z,60.20
2019-03-08T19:45:53.521Z,60.70
2019-03-08T19:47:40.086Z,61.30
2019-03-08T19:49:34.331Z,61.70
2019-03-08T19:51:12.021Z,62.00
2019-03-08T19:52:50.865Z,62.40
2019-03-08T19:54:37.491Z,62.70
2019-03-08T19:56:15.152Z,63.40
2019-03-08T19:58:05.146Z,64.30
2019-03-08T19:59:58.870Z,64.70
2019-03-08T20:01:37.456Z,65.30
2019-03-08T20:03:27.264Z,66.10
2019-03-08T20:05:08.253Z,67.50
2019-03-08T20:06:49.076Z,67.10
2019-03-08T20:08:30.109Z,68.30
2019-03-08T20:10:12.729Z,68.60
2019-03-08T20:12:05.923Z,69.00
2019-03-08T20:13:44.893Z,69.80
2019-03-08T20:15:25.612Z,70.40
2019-03-08T20:17:06.197Z,71.00
2019-03-08T20:18:43.981Z,71.80
2019-03-08T20:20:28.182Z,72.50
2019-03-08T20:22:09.086Z,72.90
2019-03-08T20:23:47.998Z,73.70
2019-03-08T20:25:24.195Z,74.20
2019-03-08T20:27:10.741Z,74.90
2019-03-08T20:28:52.579Z,75.70
2019-03-08T20:30:28.544Z,76.20
2019-03-08T20:32:18.409Z,76.60
2019-03-08T20:33:56.149Z,77.00
2019-03-08T20:35:45.676Z,77.50
2019-03-08T20:37:41.568Z,78.40
2019-03-08T20:39:17.581Z,78.50
2019-03-08T20:40:56.515Z,78.60
2019-03-08T20:42:46.470Z,79.20
2019-03-08T20:44:27.057Z,80.00
2019-03-08T20:46:04.752Z,80.90
2019-03-08T20:47:41.163Z,82.20
2019-03-08T20:49:17.280Z,82.80
2019-03-08T20:50:53.507Z,83.40
2019-03-08T20:52:29.704Z,84.50
2019-03-08T20:54:05.910Z,85.00
2019-03-08T20:55:42.066Z,85.10
2019-03-08T20:57:18.130Z,86.00
2019-03-08T20:58:54.054Z,86.70
2019-03-08T21:00:31.026Z,87.40
2019-03-08T21:02:07.425Z,87.70
2019-03-08T21:03:43.572Z,88.20
2019-03-08T21:05:19.697Z,88.40
2019-03-08T21:06:55.962Z,88.90
2019-03-08T21:08:33.468Z,89.30
2019-03-08T21:10:13.893Z,89.50
2019-03-08T21:11:50.019Z,89.40
2019-03-08T21:13:26.162Z,89.60
2019-03-08T21:15:02.329Z,90.00
2019-03-08T21:16:38.470Z,90.10
2019-03-08T21:18:14.593Z,90.30
2019-03-08T21:19:52.298Z,90.40
2019-03-08T21:21:28.385Z,90.60
2019-03-08T21:23:04.486Z,90.90
2019-03-08T21:24:40.909Z,91.10
2019-03-08T21:26:17.149Z,91.20
2019-03-08T21:27:53.372Z,91.50